Time;durP1;ratioP1;P1;durP2;ratioP2;P2;SDS_P1;SDS_P2;PMS_P1;PMS_P2;Temp;Humidity;BMP_temperature;BMP_pressure;BME280_temperature;BME280_humidity;BME280_pressure;Samples;Min_cycle;Max_cycle;Signal;HPM_P1;HPM_P2
2024/04/15 00:01:40;;;;;;;4.33;4.03;;;;;;;;;;5395642;26;20232;-63
2024/04/15 00:04:06;;;;;;;4.97;3.30;;;;;;;;;;5391668;26;20231;-62
2024/04/15 00:06:37;;;;;;;3.73;3.53;;;;;;;;;;5403837;26;20898;-63
2024/04/15 00:09:05;;;;;;;3.50;3.40;;;;;;;;;;5385912;26;20228;-63
2024/04/15 00:11:34;;;;;;;4.83;3.63;;;;;;;;;;5399198;26;20265;-63
2024/04/15 00:14:00;;;;;;;3.80;3.63;;;;;;;;;;5405599;26;20274;-63
2024/04/15 00:16:29;;;;;;;3.40;3.13;;;;;;;;;;5403097;26;20232;-63
2024/04/15 00:18:55;;;;;;;3.97;3.67;;;;;;;;;;5402505;26;20609;-62
2024/04/15 00:21:24;;;;;;;6.57;3.83;;;;;;;;;;5407527;26;20346;-62
2024/04/15 00:23:53;;;;;;;3.87;3.57;;;;;;;;;;5386598;26;20604;-62
2024/04/15 00:26:22;;;;;;;4.03;3.80;;;;;;;;;;5393537;26;20232;-63
2024/04/15 00:28:48;;;;;;;6.40;4.13;;;;;;;;;;5394311;26;20239;-62
2024/04/15 00:31:17;;;;;;;4.63;4.23;;;;;;;;;;5391720;26;20567;-63
2024/04/15 00:33:46;;;;;;;3.57;3.30;;;;;;;;;;5402755;26;20562;-63
2024/04/15 00:36:15;;;;;;;4.17;3.83;;;;;;;;;;5390916;26;20275;-62
2024/04/15 00:38:42;;;;;;;3.80;3.60;;;;;;;;;;5395042;26;20275;-63
2024/04/15 00:41:13;;;;;;;3.47;3.30;;;;;;;;;;5408010;26;20802;-63
2024/04/15 00:43:39;;;;;;;4.23;4.03;;;;;;;;;;5400579;26;20235;-62
2024/04/15 00:46:08;;;;;;;4.40;4.10;;;;;;;;;;5397724;26;20232;-63
2024/04/15 00:48:36;;;;;;;4.27;3.93;;;;;;;;;;5394557;26;20275;-63
2024/04/15 00:51:05;;;;;;;4.73;4.43;;;;;;;;;;5407109;26;20339;-63
2024/04/15 00:53:31;;;;;;;4.50;4.27;;;;;;;;;;5407304;26;20220;-63
2024/04/15 00:56:02;;;;;;;10.83;5.60;;;;;;;;;;5407106;26;20265;-63
2024/04/15 00:58:31;;;;;;;4.80;4.30;;;;;;;;;;5422405;26;20282;-63
2024/04/15 01:01:01;;;;;;;5.17;4.77;;;;;;;;;;5400527;26;20343;-63
2024/04/15 01:03:27;;;;;;;8.40;4.17;;;;;;;;;;5401291;26;20232;-63
2024/04/15 01:05:56;;;;;;;4.67;4.20;;;;;;;;;;5407280;26;20304;-63
2024/04/15 01:08:23;;;;;;;6.33;4.17;;;;;;;;;;5423919;26;20240;-63
2024/04/15 01:10:52;;;;;;;3.33;3.23;;;;;;;;;;5406721;26;20236;-62
2024/04/15 01:13:18;;;;;;;3.40;3.23;;;;;;;;;;5406934;26;20266;-63
2024/04/15 01:15:49;;;;;;;2.97;2.87;;;;;;;;;;5406411;26;20833;-63
2024/04/15 01:18:16;;;;;;;2.57;2.47;;;;;;;;;;5404258;26;20274;-63
2024/04/15 01:20:45;;;;;;;2.23;1.97;;;;;;;;;;5400750;26;20351;-63
2024/04/15 01:23:14;;;;;;;2.00;1.90;;;;;;;;;;5406703;26;20278;-62
2024/04/15 01:25:46;;;;;;;2.00;1.90;;;;;;;;;;5405561;26;20571;-63
2024/04/15 01:28:13;;;;;;;2.33;1.97;;;;;;;;;;5425731;26;20271;-62
2024/04/15 01:30:42;;;;;;;3.30;3.07;;;;;;;;;;5395655;26;20237;-62
2024/04/15 01:33:08;;;;;;;1.67;1.63;;;;;;;;;;5401021;26;20232;-62
2024/04/15 01:35:37;;;;;;;2.33;1.77;;;;;;;;;;5406597;26;20610;-62
2024/04/15 01:38:04;;;;;;;2.83;1.40;;;;;;;;;;5406538;26;20587;-62
2024/04/15 01:40:33;;;;;;;1.73;1.37;;;;;;;;;;5392059;26;20288;-63
2024/04/15 01:43:04;;;;;;;1.87;1.53;;;;;;;;;;5398989;26;20228;-62
2024/04/15 01:45:33;;;;;;;1.50;1.50;;;;;;;;;;5403500;26;20247;-63
2024/04/15 01:47:59;;;;;;;2.03;1.77;;;;;;;;;;5406069;26;20228;-63
2024/04/15 01:50:28;;;;;;;1.23;1.23;;;;;;;;;;5405745;26;20278;-62
2024/04/15 01:52:55;;;;;;;1.63;1.40;;;;;;;;;;5406461;26;20252;-63
2024/04/15 01:55:24;;;;;;;2.20;1.40;;;;;;;;;;5406432;26;20319;-62
2024/04/15 01:57:50;;;;;;;2.47;2.27;;;;;;;;;;5418414;26;20234;-63
2024/04/15 02:00:21;;;;;;;1.40;1.30;;;;;;;;;;5394769;26;20243;-62
2024/04/15 02:02:48;;;;;;;1.50;1.50;;;;;;;;;;5406278;26;20703;-63
2024/04/15 02:05:16;;;;;;;1.63;1.53;;;;;;;;;;5406145;26;20324;-62
2024/04/15 02:07:43;;;;;;;1.23;1.23;;;;;;;;;;5406091;26;20219;-63
2024/04/15 02:10:12;;;;;;;1.43;1.37;;;;;;;;;;5403900;26;20762;-62
2024/04/15 02:12:38;;;;;;;1.47;1.37;;;;;;;;;;5404375;26;20236;-62
2024/04/15 02:15:07;;;;;;;1.03;1.00;;;;;;;;;;5405480;26;20236;-62
2024/04/15 02:17:36;;;;;;;2.43;1.10;;;;;;;;;;5385641;26;20605;-63
2024/04/15 02:20:05;;;;;;;1.63;1.53;;;;;;;;;;5405018;26;20278;-63
2024/04/15 02:22:31;;;;;;;1.10;1.10;;;;;;;;;;5403840;26;20290;-63
2024/04/15 02:25:00;;;;;;;2.70;2.23;;;;;;;;;;5405597;26;20232;-62
2024/04/15 02:27:26;;;;;;;2.10;1.40;;;;;;;;;;5404522;26;20286;-63
2024/04/15 02:29:55;;;;;;;1.53;1.27;;;;;;;;;;5404461;26;20820;-63
2024/04/15 02:32:22;;;;;;;2.40;1.37;;;;;;;;;;5405578;26;20220;-63
2024/04/15 02:34:53;;;;;;;1.90;1.70;;;;;;;;;;5400073;26;20793;-62
2024/04/15 02:37:20;;;;;;;1.50;1.30;;;;;;;;;;5395402;26;20270;-63
2024/04/15 02:39:49;;;;;;;3.13;1.60;;;;;;;;;;5404217;26;20811;-62
2024/04/15 02:42:15;;;;;;;1.40;1.30;;;;;;;;;;5370326;26;20248;-63
2024/04/15 02:44:44;;;;;;;2.27;1.17;;;;;;;;;;5370320;26;20315;-63
2024/04/15 02:47:10;;;;;;;1.57;1.43;;;;;;;;;;5379531;26;20274;-62
2024/04/15 02:49:39;;;;;;;2.43;1.93;;;;;;;;;;5423872;26;20348;-62
2024/04/15 02:52:08;;;;;;;1.43;1.43;;;;;;;;;;5370181;26;20635;-62
2024/04/15 02:54:37;;;;;;;1.80;1.70;;;;;;;;;;5378694;26;20275;-63
2024/04/15 02:57:03;;;;;;;2.10;1.50;;;;;;;;;;5385852;26;20228;-63
2024/04/15 02:59:32;;;;;;;1.90;1.90;;;;;;;;;;5403031;26;20323;-62
2024/04/15 03:01:58;;;;;;;2.23;2.10;;;;;;;;;;5405046;26;20274;-62
2024/04/15 03:04:27;;;;;;;2.20;2.07;;;;;;;;;;5403930;26;20295;-61
2024/04/15 03:06:53;;;;;;;4.83;2.50;;;;;;;;;;5405364;26;20254;-62
2024/04/15 03:09:25;;;;;;;3.13;2.87;;;;;;;;;;5401621;26;20282;-62
2024/04/15 03:11:51;;;;;;;2.53;2.43;;;;;;;;;;5403508;26;20275;-62
2024/04/15 03:14:20;;;;;;;2.80;2.60;;;;;;;;;;5398620;26;20548;-63
2024/04/15 03:16:47;;;;;;;1.83;1.73;;;;;;;;;;5422731;26;20621;-62
2024/04/15 03:19:18;;;;;;;3.87;2.30;;;;;;;;;;5404546;26;20232;-62
2024/04/15 03:21:44;;;;;;;2.60;2.40;;;;;;;;;;5398488;26;20628;-63
2024/04/15 03:24:13;;;;;;;5.07;2.37;;;;;;;;;;5404439;26;20291;-62
2024/04/15 03:26:43;;;;;;;2.30;2.20;;;;;;;;;;5405078;26;20747;-62
2024/04/15 03:29:12;;;;;;;2.30;2.20;;;;;;;;;;5404474;26;20628;-62
2024/04/15 03:31:38;;;;;;;2.23;2.23;;;;;;;;;;5403561;26;20597;-62
2024/04/15 03:34:07;;;;;;;3.90;2.50;;;;;;;;;;5423326;26;20231;-63
2024/04/15 03:36:33;;;;;;;2.23;2.13;;;;;;;;;;5404047;26;20267;-62
2024/04/15 03:39:02;;;;;;;2.13;2.03;;;;;;;;;;5404383;26;20316;-62
2024/04/15 03:41:31;;;;;;;2.00;1.90;;;;;;;;;;5391641;26;20294;-62
2024/04/15 03:44:03;;;;;;;2.73;2.40;;;;;;;;;;5404839;26;20282;-62
2024/04/15 03:46:29;;;;;;;2.33;2.23;;;;;;;;;;5405162;26;20219;-62
2024/04/15 03:48:58;;;;;;;2.47;2.30;;;;;;;;;;5404343;26;20224;-62
2024/04/15 03:51:24;;;;;;;2.43;2.33;;;;;;;;;;5403419;26;20286;-63
2024/04/15 03:53:53;;;;;;;2.47;2.37;;;;;;;;;;5423268;26;20229;-62
2024/04/15 03:56:19;;;;;;;2.20;2.10;;;;;;;;;;5418284;26;20270;-62
2024/04/15 03:58:48;;;;;;;2.73;2.60;;;;;;;;;;5401356;26;20287;-63
2024/04/15 04:01:17;;;;;;;2.00;1.80;;;;;;;;;;5406460;26;20231;-62
2024/04/15 04:03:46;;;;;;;3.97;2.73;;;;;;;;;;5378860;26;20233;-62
2024/04/15 04:06:12;;;;;;;2.40;2.20;;;;;;;;;;5387510;26;21027;-62
2024/04/15 04:08:41;;;;;;;2.53;2.33;;;;;;;;;;5395692;26;20240;-62
2024/04/15 04:11:08;;;;;;;3.03;2.80;;;;;;;;;;5398290;26;20278;-62
2024/04/15 04:13:37;;;;;;;2.73;2.63;;;;;;;;;;5404261;26;20638;-62
2024/04/15 04:16:03;;;;;;;2.90;2.70;;;;;;;;;;5400050;26;20236;-62
2024/04/15 04:18:35;;;;;;;3.67;3.40;;;;;;;;;;5400843;26;20244;-62
2024/04/15 04:21:01;;;;;;;5.40;3.30;;;;;;;;;;5404004;26;20406;-62
2024/04/15 04:23:30;;;;;;;3.13;2.93;;;;;;;;;;5407395;26;20334;-62
2024/04/15 04:25:56;;;;;;;3.67;3.47;;;;;;;;;;5389495;26;20236;-62
2024/04/15 04:28:25;;;;;;;3.27;3.00;;;;;;;;;;5406843;26;20239;-62
2024/04/15 04:30:51;;;;;;;3.03;2.93;;;;;;;;;;5407488;26;20250;-62
2024/04/15 04:33:20;;;;;;;3.30;2.97;;;;;;;;;;5407581;26;20224;-62
2024/04/15 04:35:49;;;;;;;3.60;3.37;;;;;;;;;;5405724;26;20585;-62
2024/04/15 04:38:18;;;;;;;2.70;2.53;;;;;;;;;;5382167;26;20298;-62
2024/04/15 04:40:44;;;;;;;3.83;2.70;;;;;;;;;;5407364;26;20237;-61
2024/04/15 04:43:13;;;;;;;3.20;2.30;;;;;;;;;;5407147;26;20328;-62
2024/04/15 04:45:39;;;;;;;2.50;2.40;;;;;;;;;;5412434;26;20227;-62
2024/04/15 04:48:09;;;;;;;2.47;2.27;;;;;;;;;;5407191;26;20254;-61
2024/04/15 04:50:35;;;;;;;2.60;2.40;;;;;;;;;;5405890;26;20235;-62
2024/04/15 04:53:07;;;;;;;3.43;2.37;;;;;;;;;;5406845;26;20278;-62
2024/04/15 04:55:36;;;;;;;3.00;2.83;;;;;;;;;;5404718;26;20282;-62
2024/04/15 04:58:10;;;;;;;3.53;2.47;;;;;;;;;;5399243;26;20282;-62
2024/04/15 05:00:36;;;;;;;2.70;2.50;;;;;;;;;;5406220;26;20653;-62
2024/04/15 05:03:08;;;;;;;3.00;2.73;;;;;;;;;;5406489;26;20800;-62
2024/04/15 05:05:35;;;;;;;3.10;2.90;;;;;;;;;;5407008;26;20560;-62
2024/04/15 05:08:05;;;;;;;3.37;3.17;;;;;;;;;;5406983;26;20231;-62
2024/04/15 05:10:36;;;;;;;3.07;2.87;;;;;;;;;;5405023;26;20239;-62
2024/04/15 05:13:05;;;;;;;3.43;3.13;;;;;;;;;;5406145;26;20232;-62
2024/04/15 05:15:31;;;;;;;4.37;3.53;;;;;;;;;;5405483;26;20624;-62
2024/04/15 05:18:03;;;;;;;4.07;3.53;;;;;;;;;;5412015;26;20359;-61
2024/04/15 05:20:30;;;;;;;3.90;3.20;;;;;;;;;;5397844;26;20240;-61
2024/04/15 05:23:02;;;;;;;3.03;2.77;;;;;;;;;;5423296;26;20335;-62
2024/04/15 05:25:28;;;;;;;3.03;2.83;;;;;;;;;;5405618;26;20634;-61
2024/04/15 05:28:02;;;;;;;3.10;2.87;;;;;;;;;;5405958;26;20796;-62
2024/04/15 05:30:28;;;;;;;3.50;3.40;;;;;;;;;;5405572;26;20735;-61
2024/04/15 05:32:57;;;;;;;4.37;3.83;;;;;;;;;;5405331;26;20235;-61
2024/04/15 05:35:24;;;;;;;3.47;3.30;;;;;;;;;;5406342;26;20558;-61
2024/04/15 05:37:52;;;;;;;3.60;3.40;;;;;;;;;;5405780;26;20312;-62
2024/04/15 05:40:19;;;;;;;3.90;3.53;;;;;;;;;;5392548;26;20236;-62
2024/04/15 05:42:47;;;;;;;3.77;3.50;;;;;;;;;;5398819;26;20239;-61
2024/04/15 05:45:16;;;;;;;5.67;2.97;;;;;;;;;;5403185;26;20232;-62
2024/04/15 05:47:45;;;;;;;4.13;3.23;;;;;;;;;;5401071;26;20335;-62
2024/04/15 05:50:12;;;;;;;5.83;3.10;;;;;;;;;;5400251;26;20240;-61
2024/04/15 05:52:40;;;;;;;7.43;4.13;;;;;;;;;;5398679;26;20228;-62
2024/04/15 05:55:07;;;;;;;4.10;3.60;;;;;;;;;;5394569;26;20763;-62
2024/04/15 05:57:36;;;;;;;4.20;4.00;;;;;;;;;;5401557;26;20624;-61
2024/04/15 06:00:03;;;;;;;4.03;3.67;;;;;;;;;;5399654;26;20232;-61
2024/04/15 06:02:35;;;;;;;5.10;4.60;;;;;;;;;;5401077;26;20235;-60
2024/04/15 06:05:01;;;;;;;3.50;3.33;;;;;;;;;;5405564;26;20290;-59
2024/04/15 06:07:30;;;;;;;3.83;3.27;;;;;;;;;;5405581;26;20236;-59
2024/04/15 06:09:56;;;;;;;3.30;3.10;;;;;;;;;;5400872;26;21041;-60
2024/04/15 06:12:25;;;;;;;3.53;3.23;;;;;;;;;;5395094;26;20370;-60
2024/04/15 06:14:51;;;;;;;3.50;3.30;;;;;;;;;;5405618;26;20304;-60
2024/04/15 06:17:22;;;;;;;3.80;3.10;;;;;;;;;;5399272;26;20267;-60
2024/04/15 06:19:51;;;;;;;3.73;3.43;;;;;;;;;;5385349;26;20248;-59
2024/04/15 06:22:20;;;;;;;3.08;2.88;;;;;;;;;;5405198;26;20045;-60
2024/04/15 06:24:47;;;;;;;3.17;2.97;;;;;;;;;;5383543;26;20271;-61
2024/04/15 06:27:16;;;;;;;5.57;3.67;;;;;;;;;;5392267;26;20243;-60
2024/04/15 06:29:42;;;;;;;4.03;3.27;;;;;;;;;;5390120;26;20251;-60
2024/04/15 06:32:12;;;;;;;3.17;2.83;;;;;;;;;;5401119;26;21192;-58
2024/04/15 06:34:38;;;;;;;3.47;3.27;;;;;;;;;;5400870;26;20275;-57
2024/04/15 06:37:10;;;;;;;5.20;3.27;;;;;;;;;;5396168;26;20239;-58
2024/04/15 06:39:36;;;;;;;3.10;3.00;;;;;;;;;;5394575;26;20240;-58
2024/04/15 06:42:05;;;;;;;3.20;3.07;;;;;;;;;;5392652;26;20275;-60
2024/04/15 06:44:33;;;;;;;5.47;2.93;;;;;;;;;;5400771;26;20228;-62
2024/04/15 06:47:02;;;;;;;6.23;3.60;;;;;;;;;;5388561;26;20360;-59
2024/04/15 06:49:28;;;;;;;3.87;3.50;;;;;;;;;;5404206;26;20235;-59
2024/04/15 06:51:57;;;;;;;4.73;4.50;;;;;;;;;;5404277;26;20232;-59
2024/04/15 06:54:26;;;;;;;3.30;3.10;;;;;;;;;;5385363;26;20229;-59
2024/04/15 06:56:55;;;;;;;4.17;3.27;;;;;;;;;;5401640;26;20235;-58
2024/04/15 06:59:21;;;;;;;5.60;3.13;;;;;;;;;;5404702;26;20270;-59
2024/04/15 07:01:50;;;;;;;3.37;3.07;;;;;;;;;;5400869;26;20348;-59
2024/04/15 07:04:17;;;;;;;5.13;3.77;;;;;;;;;;5405139;26;20235;-59
2024/04/15 07:06:45;;;;;;;4.77;4.47;;;;;;;;;;5404425;26;20236;-59
2024/04/15 07:09:12;;;;;;;5.00;4.50;;;;;;;;;;5404591;26;20236;-59
2024/04/15 07:11:44;;;;;;;5.13;3.73;;;;;;;;;;5405021;26;20611;-59
2024/04/15 07:14:10;;;;;;;3.60;3.40;;;;;;;;;;5403602;26;20736;-58
2024/04/15 07:16:39;;;;;;;4.43;3.87;;;;;;;;;;5404950;26;20620;-59
2024/04/15 07:19:05;;;;;;;4.27;3.93;;;;;;;;;;5399163;26;20231;-58
2024/04/15 07:21:34;;;;;;;4.20;4.00;;;;;;;;;;5401531;26;20235;-58
2024/04/15 07:24:00;;;;;;;4.10;3.80;;;;;;;;;;5400595;26;20284;-61
2024/04/15 07:26:29;;;;;;;3.60;3.30;;;;;;;;;;5404762;26;20231;-60
2024/04/15 07:28:59;;;;;;;3.50;3.17;;;;;;;;;;5404359;26;20590;-60
2024/04/15 07:31:28;;;;;;;3.57;3.10;;;;;;;;;;5404840;26;20263;-60
2024/04/15 07:33:54;;;;;;;3.93;3.20;;;;;;;;;;5404683;26;20232;-61
2024/04/15 07:36:23;;;;;;;5.37;3.03;;;;;;;;;;5403999;26;20262;-60
2024/04/15 07:38:49;;;;;;;3.20;3.00;;;;;;;;;;5404077;26;20231;-61
2024/04/15 07:41:18;;;;;;;3.70;2.87;;;;;;;;;;5398281;26;20298;-61
2024/04/15 07:43:45;;;;;;;3.43;2.73;;;;;;;;;;5438818;26;20233;-60
2024/04/15 07:46:17;;;;;;;3.83;3.50;;;;;;;;;;5369537;26;20293;-61
2024/04/15 07:48:43;;;;;;;3.87;3.67;;;;;;;;;;5368754;26;20236;-61
2024/04/15 07:51:12;;;;;;;3.47;3.17;;;;;;;;;;5384464;26;20239;-60
2024/04/15 07:53:38;;;;;;;2.77;2.57;;;;;;;;;;5404178;26;20232;-61
2024/04/15 07:56:07;;;;;;;3.17;2.97;;;;;;;;;;5405208;26;20231;-60
2024/04/15 07:58:34;;;;;;;3.47;2.80;;;;;;;;;;5407240;26;20621;-61
2024/04/15 08:01:03;;;;;;;3.90;2.63;;;;;;;;;;5392773;26;20295;-60
2024/04/15 08:03:32;;;;;;;6.27;3.67;;;;;;;;;;5407682;26;20876;-60
2024/04/15 08:06:01;;;;;;;2.53;2.33;;;;;;;;;;5407576;26;20231;-61
2024/04/15 08:08:27;;;;;;;2.93;2.83;;;;;;;;;;5406681;26;20270;-61
2024/04/15 08:10:56;;;;;;;2.90;2.70;;;;;;;;;;5407118;26;20278;-61
2024/04/15 08:13:22;;;;;;;2.97;2.70;;;;;;;;;;5408104;26;20270;-61
2024/04/15 08:15:51;;;;;;;3.33;3.07;;;;;;;;;;5391509;26;20233;-60
2024/04/15 08:18:17;;;;;;;3.93;3.60;;;;;;;;;;5371690;26;20228;-60
2024/04/15 08:20:55;;;;;;;4.37;4.07;;;;;;;;;;5401976;26;20813;-61
2024/04/15 08:23:22;;;;;;;5.43;4.10;;;;;;;;;;5406840;26;20239;-61
2024/04/15 08:25:54;;;;;;;4.93;4.50;;;;;;;;;;5404806;26;20273;-61
2024/04/15 08:28:20;;;;;;;5.47;4.80;;;;;;;;;;5406558;26;20635;-60
2024/04/15 08:30:49;;;;;;;5.10;4.70;;;;;;;;;;5403662;26;20231;-60
2024/04/15 08:33:15;;;;;;;4.80;4.60;;;;;;;;;;5393944;26;20235;-61
2024/04/15 08:35:44;;;;;;;4.17;3.93;;;;;;;;;;5405869;26;20609;-61
2024/04/15 08:38:13;;;;;;;5.40;3.77;;;;;;;;;;5398564;26;20228;-60
2024/04/15 08:40:45;;;;;;;3.20;3.10;;;;;;;;;;5395245;26;20779;-60
2024/04/15 08:43:14;;;;;;;7.83;3.40;;;;;;;;;;5388290;26;20235;-60
2024/04/15 08:45:44;;;;;;;3.40;3.30;;;;;;;;;;5407279;26;20798;-60
2024/04/15 08:48:12;;;;;;;4.03;3.23;;;;;;;;;;5406239;26;20303;-61
2024/04/15 08:50:41;;;;;;;5.03;3.50;;;;;;;;;;5406495;26;20231;-60
2024/04/15 08:53:07;;;;;;;4.17;3.97;;;;;;;;;;5405383;26;20232;-61
2024/04/15 08:55:39;;;;;;;3.57;3.27;;;;;;;;;;5406746;26;20275;-61
2024/04/15 08:58:05;;;;;;;4.60;4.27;;;;;;;;;;5407313;26;20250;-60
2024/04/15 09:00:35;;;;;;;5.03;4.63;;;;;;;;;;5406600;26;20315;-61
2024/04/15 09:03:01;;;;;;;5.43;5.03;;;;;;;;;;5407263;26;20672;-61
2024/04/15 09:05:30;;;;;;;5.13;4.83;;;;;;;;;;5405930;26;20232;-61
2024/04/15 09:07:56;;;;;;;4.70;4.47;;;;;;;;;;5406280;26;20785;-61
2024/04/15 09:10:25;;;;;;;4.73;4.33;;;;;;;;;;5406308;26;20289;-61
2024/04/15 09:12:56;;;;;;;5.33;4.93;;;;;;;;;;5405783;26;20216;-61
2024/04/15 09:15:25;;;;;;;5.50;5.00;;;;;;;;;;5400437;26;20243;-60
2024/04/15 09:17:52;;;;;;;6.00;5.50;;;;;;;;;;5406653;26;20364;-61
2024/04/15 09:20:22;;;;;;;6.83;6.27;;;;;;;;;;5396778;26;20574;-61
2024/04/15 09:22:48;;;;;;;8.60;6.40;;;;;;;;;;5406117;26;20244;-61
2024/04/15 09:25:17;;;;;;;8.10;7.37;;;;;;;;;;5405332;26;20232;-61
2024/04/15 09:27:43;;;;;;;7.63;6.90;;;;;;;;;;5406464;26;20232;-61
2024/04/15 09:30:15;;;;;;;8.13;7.47;;;;;;;;;;5370800;26;20708;-62
2024/04/15 09:32:42;;;;;;;6.97;6.23;;;;;;;;;;5399807;26;20247;-61
2024/04/15 09:35:11;;;;;;;7.00;6.50;;;;;;;;;;5406294;26;20232;-60
2024/04/15 09:37:37;;;;;;;6.50;5.83;;;;;;;;;;5406712;26;20236;-61
2024/04/15 09:40:08;;;;;;;6.53;5.90;;;;;;;;;;5395310;26;20235;-60
2024/04/15 09:42:37;;;;;;;7.23;6.63;;;;;;;;;;5406451;26;20232;-61
2024/04/15 09:45:07;;;;;;;6.73;6.17;;;;;;;;;;5405866;26;20339;-60
2024/04/15 09:47:36;;;;;;;7.23;6.03;;;;;;;;;;5406524;26;20274;-61
2024/04/15 09:50:05;;;;;;;5.83;5.43;;;;;;;;;;5405316;26;20283;-61
2024/04/15 09:52:31;;;;;;;6.03;5.43;;;;;;;;;;5406136;26;20266;-61
2024/04/15 09:55:01;;;;;;;8.30;5.87;;;;;;;;;;5405992;26;20283;-61
2024/04/15 09:57:27;;;;;;;7.10;6.30;;;;;;;;;;5405087;26;20227;-61
2024/04/15 09:59:59;;;;;;;7.30;6.70;;;;;;;;;;5403412;26;20581;-60
2024/04/15 10:02:31;;;;;;;6.97;6.00;;;;;;;;;;5406059;26;20227;-61
2024/04/15 10:05:06;;;;;;;7.83;6.97;;;;;;;;;;5405730;26;20231;-60
2024/04/15 10:07:33;;;;;;;7.70;7.03;;;;;;;;;;5406108;26;21602;-61
2024/04/15 10:10:02;;;;;;;7.77;7.13;;;;;;;;;;5405026;26;20364;-61
2024/04/15 10:12:28;;;;;;;7.43;6.63;;;;;;;;;;5406177;26;20258;-60
2024/04/15 10:14:57;;;;;;;8.50;7.20;;;;;;;;;;5405501;26;20272;-61
2024/04/15 10:17:25;;;;;;;7.93;7.13;;;;;;;;;;5403329;26;20279;-61
2024/04/15 10:19:54;;;;;;;9.33;7.57;;;;;;;;;;5402778;26;20240;-61
2024/04/15 10:22:24;;;;;;;7.33;6.67;;;;;;;;;;5405729;26;20232;-61
2024/04/15 10:24:54;;;;;;;10.33;7.27;;;;;;;;;;5405470;26;20271;-61
2024/04/15 10:27:20;;;;;;;7.27;6.77;;;;;;;;;;5405875;26;20326;-60
2024/04/15 10:29:52;;;;;;;8.03;6.10;;;;;;;;;;5404922;26;20251;-62
2024/04/15 10:32:18;;;;;;;6.97;6.27;;;;;;;;;;5402689;26;20232;-61
2024/04/15 10:34:53;;;;;;;6.33;5.97;;;;;;;;;;5398703;26;20243;-61
2024/04/15 10:37:27;;;;;;;6.27;5.73;;;;;;;;;;5393054;26;20675;-61
2024/04/15 10:40:03;;;;;;;7.77;5.67;;;;;;;;;;5390300;26;20239;-61
2024/04/15 10:42:29;;;;;;;5.40;4.93;;;;;;;;;;5405220;26;20278;-61
2024/04/15 10:44:58;;;;;;;8.37;4.67;;;;;;;;;;5405382;26;20236;-61
2024/04/15 10:47:24;;;;;;;11.50;10.60;;;;;;;;;;5405521;26;20275;-60
2024/04/15 10:49:53;;;;;;;6.37;6.07;;;;;;;;;;5391447;26;20284;-61
2024/04/15 10:52:20;;;;;;;5.97;5.40;;;;;;;;;;5400533;26;20672;-61
2024/04/15 10:54:49;;;;;;;5.17;4.77;;;;;;;;;;5370113;26;20248;-62
2024/04/15 10:57:17;;;;;;;4.67;4.23;;;;;;;;;;5370122;26;20588;-62
2024/04/15 10:59:46;;;;;;;5.77;4.80;;;;;;;;;;5386429;26;20834;-61
2024/04/15 11:02:12;;;;;;;6.00;4.27;;;;;;;;;;5405280;26;20274;-60
2024/04/15 11:04:41;;;;;;;4.53;4.30;;;;;;;;;;5405236;26;20236;-60
2024/04/15 11:07:09;;;;;;;4.73;4.33;;;;;;;;;;5404584;26;20244;-61
2024/04/15 11:09:39;;;;;;;5.60;4.13;;;;;;;;;;5401278;26;20231;-61
2024/04/15 11:12:05;;;;;;;4.63;4.33;;;;;;;;;;5404743;26;20274;-62
2024/04/15 11:14:37;;;;;;;5.23;4.67;;;;;;;;;;5404820;26;20295;-62
2024/04/15 11:17:04;;;;;;;5.70;5.40;;;;;;;;;;5390259;26;20794;-61
2024/04/15 11:19:33;;;;;;;6.67;6.13;;;;;;;;;;5389862;26;20299;-60
2024/04/15 11:22:04;;;;;;;7.10;6.60;;;;;;;;;;5404992;26;20731;-61
2024/04/15 11:24:34;;;;;;;5.70;5.30;;;;;;;;;;5403951;26;20263;-61
2024/04/15 11:27:01;;;;;;;5.67;5.37;;;;;;;;;;5404649;26;20228;-61
2024/04/15 11:29:30;;;;;;;5.60;5.10;;;;;;;;;;5398685;26;20336;-61
2024/04/15 11:31:59;;;;;;;5.57;5.03;;;;;;;;;;5403870;26;20282;-61
2024/04/15 11:34:28;;;;;;;6.27;5.87;;;;;;;;;;5404565;26;20232;-60
2024/04/15 11:36:54;;;;;;;5.33;4.67;;;;;;;;;;5404612;26;20236;-61
2024/04/15 11:39:23;;;;;;;4.70;4.40;;;;;;;;;;5389667;26;20231;-61
2024/04/15 11:41:49;;;;;;;5.67;5.17;;;;;;;;;;5404114;26;20847;-61
2024/04/15 11:44:18;;;;;;;9.60;5.00;;;;;;;;;;5404428;26;20723;-61
2024/04/15 11:46:47;;;;;;;3.90;3.60;;;;;;;;;;5404668;26;20274;-61
2024/04/15 11:49:18;;;;;;;4.10;3.80;;;;;;;;;;5399058;26;20872;-61
2024/04/15 11:51:44;;;;;;;3.70;3.50;;;;;;;;;;5404183;26;20270;-61
2024/04/15 11:54:13;;;;;;;4.40;4.10;;;;;;;;;;5398592;26;20270;-61
2024/04/15 11:56:40;;;;;;;3.63;3.33;;;;;;;;;;5369398;26;20267;-61
2024/04/15 11:59:10;;;;;;;3.87;3.57;;;;;;;;;;5403506;26;20232;-62
2024/04/15 12:01:36;;;;;;;3.03;2.90;;;;;;;;;;5392456;26;20724;-62
2024/04/15 12:04:05;;;;;;;4.27;3.97;;;;;;;;;;5368635;26;20232;-62
2024/04/15 12:06:34;;;;;;;3.77;3.60;;;;;;;;;;5386455;26;20240;-62
2024/04/15 12:09:04;;;;;;;4.27;4.07;;;;;;;;;;5402071;26;20235;-61
2024/04/15 12:11:30;;;;;;;4.47;4.17;;;;;;;;;;5403971;26;20287;-61
2024/04/15 12:13:59;;;;;;;5.37;4.93;;;;;;;;;;5404007;26;20635;-61
2024/04/15 12:16:25;;;;;;;3.73;3.60;;;;;;;;;;5403995;26;20275;-61
2024/04/15 12:18:55;;;;;;;4.53;4.20;;;;;;;;;;5403322;26;20339;-61
2024/04/15 12:21:21;;;;;;;5.37;4.97;;;;;;;;;;5403950;26;20376;-60
2024/04/15 12:23:52;;;;;;;4.30;3.90;;;;;;;;;;5399709;26;20795;-61
2024/04/15 12:26:19;;;;;;;4.17;3.97;;;;;;;;;;5403142;26;20793;-61
2024/04/15 12:28:48;;;;;;;4.37;3.97;;;;;;;;;;5402709;26;20297;-60
2024/04/15 12:31:14;;;;;;;3.07;2.87;;;;;;;;;;5403668;26;20286;-60
2024/04/15 12:33:43;;;;;;;3.43;3.13;;;;;;;;;;5403793;26;20303;-61
2024/04/15 12:36:09;;;;;;;4.40;2.83;;;;;;;;;;5403621;26;20267;-61
2024/04/15 12:38:38;;;;;;;2.77;2.57;;;;;;;;;;5403266;26;20779;-61
2024/04/15 12:41:07;;;;;;;3.00;2.87;;;;;;;;;;5403282;26;20236;-61
2024/04/15 12:43:36;;;;;;;2.83;2.67;;;;;;;;;;5395949;26;20232;-61
2024/04/15 12:46:03;;;;;;;4.17;2.70;;;;;;;;;;5406702;26;20348;-62
2024/04/15 12:48:31;;;;;;;3.40;2.60;;;;;;;;;;5406517;26;20340;-62
2024/04/15 12:50:59;;;;;;;2.97;2.20;;;;;;;;;;5403677;26;21028;-62
2024/04/15 12:53:28;;;;;;;3.43;2.73;;;;;;;;;;5387954;26;20332;-61
2024/04/15 12:55:54;;;;;;;2.70;2.50;;;;;;;;;;5403811;26;20274;-61
2024/04/15 12:58:26;;;;;;;2.50;2.40;;;;;;;;;;5406166;26;20283;-61
2024/04/15 13:00:52;;;;;;;3.27;2.70;;;;;;;;;;5406629;26;20236;-61
2024/04/15 13:03:21;;;;;;;2.67;2.50;;;;;;;;;;5393341;26;20282;-61
2024/04/15 13:05:47;;;;;;;2.23;2.13;;;;;;;;;;5407004;26;20236;-61
2024/04/15 13:08:16;;;;;;;1.97;1.87;;;;;;;;;;5392395;26;20232;-61
2024/04/15 13:10:42;;;;;;;3.23;2.70;;;;;;;;;;5392149;26;20240;-61
2024/04/15 13:13:11;;;;;;;3.07;2.83;;;;;;;;;;5406532;26;20340;-60
2024/04/15 13:15:40;;;;;;;2.43;2.33;;;;;;;;;;5406679;26;20323;-61
2024/04/15 13:18:10;;;;;;;3.73;2.67;;;;;;;;;;5406067;26;20275;-62
2024/04/15 13:20:36;;;;;;;3.83;3.23;;;;;;;;;;5394589;26;20798;-61
2024/04/15 13:23:09;;;;;;;3.27;3.07;;;;;;;;;;5371404;26;20744;-61
2024/04/15 13:25:35;;;;;;;2.37;2.27;;;;;;;;;;5371667;26;20708;-61
2024/04/15 13:28:04;;;;;;;2.87;2.67;;;;;;;;;;5371355;26;20271;-61
2024/04/15 13:30:30;;;;;;;2.70;2.50;;;;;;;;;;5398409;26;20298;-61
2024/04/15 13:33:06;;;;;;;3.00;2.73;;;;;;;;;;5406077;26;20731;-60
2024/04/15 13:35:32;;;;;;;2.73;2.53;;;;;;;;;;5405496;26;20224;-61
2024/04/15 13:38:02;;;;;;;3.47;3.27;;;;;;;;;;5406579;26;20232;-61
2024/04/15 13:40:28;;;;;;;3.70;3.20;;;;;;;;;;5406046;26;20278;-60
2024/04/15 13:42:57;;;;;;;2.50;2.40;;;;;;;;;;5406343;26;20235;-61
2024/04/15 13:45:23;;;;;;;3.80;3.70;;;;;;;;;;5406426;26;20564;-60
2024/04/15 13:47:52;;;;;;;3.30;1.97;;;;;;;;;;5401795;26;20587;-61
2024/04/15 13:50:21;;;;;;;2.20;2.10;;;;;;;;;;5400507;26;20232;-61
2024/04/15 13:52:49;;;;;;;2.30;2.20;;;;;;;;;;5401923;26;20279;-60
2024/04/15 13:55:16;;;;;;;1.87;1.77;;;;;;;;;;5400576;26;20575;-61
2024/04/15 13:57:45;;;;;;;2.57;2.37;;;;;;;;;;5406251;26;20220;-61
2024/04/15 14:00:11;;;;;;;2.53;2.33;;;;;;;;;;5405455;26;20227;-61
2024/04/15 14:02:41;;;;;;;3.07;2.10;;;;;;;;;;5406132;26;20232;-60
2024/04/15 14:05:09;;;;;;;2.43;2.40;;;;;;;;;;5373315;26;20782;-60
2024/04/15 14:07:41;;;;;;;2.20;1.90;;;;;;;;;;5405897;26;20224;-61
2024/04/15 14:10:07;;;;;;;5.07;2.07;;;;;;;;;;5390417;26;20286;-61
2024/04/15 14:12:36;;;;;;;4.57;1.70;;;;;;;;;;5404763;26;20235;-61
2024/04/15 14:15:02;;;;;;;3.97;1.90;;;;;;;;;;5404430;26;20603;-60
2024/04/15 14:17:31;;;;;;;9.93;2.27;;;;;;;;;;5411492;26;20278;-61
2024/04/15 14:19:57;;;;;;;5.87;1.97;;;;;;;;;;5405162;26;20782;-60
2024/04/15 14:22:26;;;;;;;3.87;2.13;;;;;;;;;;5405441;26;20231;-60
2024/04/15 14:24:55;;;;;;;6.40;2.23;;;;;;;;;;5405676;26;20228;-61
2024/04/15 14:27:24;;;;;;;2.23;1.70;;;;;;;;;;5405595;26;20259;-61
2024/04/15 14:29:50;;;;;;;2.25;2.05;;;;;;;;;;5402855;26;20360;-61
2024/04/15 14:32:19;;;;;;;3.97;2.33;;;;;;;;;;5395266;26;20232;-60
2024/04/15 14:34:45;;;;;;;1.50;1.50;;;;;;;;;;5397209;26;20236;-60
2024/04/15 14:37:14;;;;;;;1.87;1.77;;;;;;;;;;5405032;26;20231;-61
2024/04/15 14:39:40;;;;;;;1.87;1.60;;;;;;;;;;5404749;26;20274;-61
2024/04/15 14:42:12;;;;;;;5.50;2.20;;;;;;;;;;5390648;26;20333;-61
2024/04/15 14:44:38;;;;;;;2.00;1.90;;;;;;;;;;5404929;26;20235;-61
2024/04/15 14:47:07;;;;;;;3.43;1.63;;;;;;;;;;5390556;26;20343;-60
2024/04/15 14:49:34;;;;;;;1.90;1.57;;;;;;;;;;5402726;26;20282;-60